createdAt,value
2023-05-20T00:03:06.231Z,13.40
2023-05-20T00:06:30.125Z,13.50
2023-05-20T00:09:54.924Z,13.50
2023-05-20T00:13:20.753Z,13.40
2023-05-20T00:16:53.324Z,13.40
2023-05-20T00:20:18.674Z,13.40
2023-05-20T00:23:42.736Z,13.40
2023-05-20T00:27:07.057Z,13.40
2023-05-20T00:30:30.874Z,13.30
2023-05-20T00:33:57.107Z,13.30
2023-05-20T00:37:22.194Z,13.30
2023-05-20T00:40:46.081Z,13.30
2023-05-20T00:44:11.301Z,13.30
2023-05-20T00:47:37.642Z,13.20
2023-05-20T00:51:02.970Z,13.20
2023-05-20T00:54:28.291Z,13.20
2023-05-20T00:57:54.186Z,13.10
2023-05-20T01:01:19.110Z,13.00
2023-05-20T01:04:49.814Z,13.00
2023-05-20T01:08:13.577Z,12.90
2023-05-20T01:11:47.608Z,12.80
2023-05-20T01:15:13.547Z,12.70
2023-05-20T01:18:40.897Z,12.70
2023-05-20T01:22:07.720Z,12.60
2023-05-20T01:25:32.935Z,12.60
2023-05-20T01:28:57.884Z,12.60
2023-05-20T01:32:24.426Z,12.60
2023-05-20T01:35:49.042Z,12.60
2023-05-20T01:39:14.485Z,12.50
2023-05-20T01:42:41.018Z,12.50
2023-05-20T01:46:07.527Z,12.30
2023-05-20T01:49:31.421Z,12.20
2023-05-20T01:52:55.929Z,12.20
2023-05-20T01:56:22.135Z,12.20
2023-05-20T01:59:48.534Z,12.20
2023-05-20T02:03:12.869Z,12.20
2023-05-20T02:06:36.854Z,12.20
2023-05-20T02:10:00.953Z,12.10
2023-05-20T02:13:25.862Z,12.10
2023-05-20T02:16:51.371Z,12.00
2023-05-20T02:20:16.502Z,12.00
2023-05-20T02:23:40.865Z,12.00
2023-05-20T02:27:06.241Z,12.00
2023-05-20T02:30:34.665Z,11.90
2023-05-20T02:34:01.300Z,11.90
2023-05-20T02:37:26.019Z,11.80
2023-05-20T02:40:49.888Z,11.70
2023-05-20T02:44:14.051Z,11.60
2023-05-20T02:47:39.102Z,11.70
2023-05-20T02:51:04.661Z,11.50
2023-05-20T02:54:28.993Z,11.50
2023-05-20T02:57:53.171Z,11.50
2023-05-20T03:01:17.124Z,11.50
2023-05-20T03:04:41.089Z,11.40
2023-05-20T03:08:10.252Z,11.40
2023-05-20T03:11:34.982Z,11.40
2023-05-20T03:15:03.184Z,11.40
2023-05-20T03:18:31.236Z,11.30
2023-05-20T03:21:54.931Z,11.20
2023-05-20T03:25:20.838Z,11.20
2023-05-20T03:28:46.697Z,11.20
2023-05-20T03:32:14.372Z,11.20
2023-05-20T03:35:40.957Z,11.10
2023-05-20T03:39:09.411Z,11.10
2023-05-20T03:42:35.625Z,11.10
2023-05-20T03:46:07.225Z,11.00
2023-05-20T03:49:33.383Z,11.00
2023-05-20T03:52:58.434Z,11.00
2023-05-20T03:56:36.314Z,11.10
2023-05-20T04:00:02.409Z,11.10
2023-05-20T04:03:30.293Z,11.10
2023-05-20T04:06:54.313Z,11.10
2023-05-20T04:10:20.313Z,11.10
2023-05-20T04:13:43.910Z,11.10
2023-05-20T04:17:09.643Z,11.00
2023-05-20T04:20:33.787Z,10.80
2023-05-20T04:23:58.070Z,10.80
2023-05-20T04:27:27.417Z,10.70
2023-05-20T04:31:00.020Z,10.80
2023-05-20T04:34:26.687Z,10.90
2023-05-20T04:38:17.602Z,10.90
2023-05-20T04:41:42.741Z,11.00
2023-05-20T04:45:08.767Z,11.00
2023-05-20T04:48:34.726Z,11.00
2023-05-20T04:52:00.828Z,11.10
2023-05-20T04:55:27.366Z,11.10
2023-05-20T04:58:51.727Z,11.30
2023-05-20T05:02:19.230Z,11.40
2023-05-20T05:05:42.898Z,11.40
2023-05-20T05:09:10.256Z,11.40
2023-05-20T05:12:37.547Z,11.50
2023-05-20T05:16:03.083Z,11.50
2023-05-20T05:19:28.942Z,11.50
2023-05-20T05:22:53.080Z,11.50
2023-05-20T05:26:18.931Z,11.60
2023-05-20T05:29:42.502Z,11.60
2023-05-20T05:33:07.209Z,11.50
2023-05-20T05:36:33.553Z,11.50
2023-05-20T05:39:58.108Z,11.60
2023-05-20T05:43:23.551Z,11.60
2023-05-20T05:46:49.161Z,11.70
2023-05-20T05:50:13.864Z,11.90
2023-05-20T05:53:39.080Z,12.00
2023-05-20T05:57:04.571Z,12.00
2023-05-20T06:00:32.360Z,12.00
2023-05-20T06:03:56.237Z,12.00
2023-05-20T06:07:20.188Z,12.00
2023-05-20T06:10:50.404Z,12.10
2023-05-20T06:14:15.193Z,12.20
2023-05-20T06:17:40.626Z,12.40
2023-05-20T06:21:06.270Z,12.40
2023-05-20T06:24:31.311Z,12.60
2023-05-20T06:27:55.157Z,12.80
2023-05-20T06:31:20.365Z,13.00
2023-05-20T06:34:46.577Z,13.20
2023-05-20T06:38:11.302Z,13.40
2023-05-20T06:41:36.208Z,13.80
2023-05-20T06:45:07.265Z,14.60
2023-05-20T06:48:47.238Z,15.70
2023-05-20T06:52:12.576Z,16.90
2023-05-20T06:55:39.612Z,17.60
2023-05-20T06:59:03.716Z,18.40
2023-05-20T07:02:31.579Z,19.10
2023-05-20T07:05:57.410Z,20.00
2023-05-20T07:09:22.837Z,20.10
2023-05-20T07:12:47.152Z,20.10
2023-05-20T07:16:12.262Z,19.80
2023-05-20T07:19:40.442Z,19.70
2023-05-20T07:23:06.531Z,19.60
2023-05-20T07:26:41.075Z,20.00
2023-05-20T07:30:05.766Z,19.90
2023-05-20T07:33:30.696Z,19.20
2023-05-20T07:36:55.372Z,19.40
2023-05-20T07:40:19.260Z,20.40
2023-05-20T07:43:44.255Z,20.60
2023-05-20T07:47:08.354Z,19.40
2023-05-20T07:50:32.136Z,20.10
2023-05-20T07:53:56.369Z,20.00
2023-05-20T07:57:20.529Z,19.50
2023-05-20T08:00:48.527Z,19.70
2023-05-20T08:04:12.701Z,20.30
2023-05-20T08:07:37.396Z,20.00
2023-05-20T08:11:01.880Z,20.10
2023-05-20T08:14:28.401Z,19.90
2023-05-20T08:17:56.604Z,19.50
2023-05-20T08:21:20.602Z,18.90
2023-05-20T08:24:44.886Z,18.60
2023-05-20T08:28:08.524Z,18.20
2023-05-20T08:31:34.622Z,17.70
2023-05-20T08:35:01.631Z,18.00
2023-05-20T08:38:25.654Z,18.80
2023-05-20T08:41:49.594Z,18.60
2023-05-20T08:45:14.432Z,20.40
2023-05-20T08:48:38.600Z,21.90
2023-05-20T08:52:05.084Z,20.80
2023-05-20T08:55:36.114Z,20.80
2023-05-20T08:58:59.937Z,20.10
2023-05-20T09:02:23.504Z,19.20
2023-05-20T09:05:47.391Z,18.80
2023-05-20T09:09:13.293Z,20.00
2023-05-20T09:12:37.273Z,22.20
2023-05-20T09:16:02.207Z,23.10
2023-05-20T09:19:26.548Z,23.40
2023-05-20T09:22:53.060Z,23.90
2023-05-20T09:26:19.141Z,23.30
2023-05-20T09:29:43.664Z,23.00
2023-05-20T09:33:09.216Z,20.90
2023-05-20T09:36:36.311Z,20.10
2023-05-20T09:40:06.388Z,20.70
2023-05-20T09:43:31.947Z,21.00
2023-05-20T09:46:57.518Z,20.30
2023-05-20T09:50:22.258Z,19.70
2023-05-20T09:53:45.914Z,18.90
2023-05-20T09:57:10.254Z,18.90
2023-05-20T10:00:36.476Z,20.40
2023-05-20T10:04:01.511Z,21.20
2023-05-20T10:07:52.854Z,20.10
2023-05-20T10:11:37.738Z,20.60
2023-05-20T10:15:14.930Z,20.70
2023-05-20T10:18:50.489Z,21.80
2023-05-20T10:22:14.409Z,21.90
2023-05-20T10:25:38.013Z,21.10
2023-05-20T10:29:01.701Z,21.20
2023-05-20T10:32:26.673Z,20.00
2023-05-20T10:35:53.155Z,19.40
2023-05-20T10:39:18.237Z,19.40
2023-05-20T10:42:42.414Z,19.30
2023-05-20T10:46:10.562Z,18.80
2023-05-20T10:49:45.129Z,18.50
2023-05-20T10:53:29.209Z,18.70
2023-05-20T10:56:57.229Z,18.80
2023-05-20T11:00:20.825Z,19.30
2023-05-20T11:03:46.396Z,19.60
2023-05-20T11:07:10.174Z,18.80
2023-05-20T11:10:36.190Z,18.60
2023-05-20T11:14:00.602Z,18.60
2023-05-20T11:17:24.253Z,18.70
2023-05-20T11:20:48.186Z,18.40
2023-05-20T11:24:11.902Z,18.60
2023-05-20T11:27:40.424Z,18.70
2023-05-20T11:31:05.315Z,18.60
2023-05-20T11:34:34.947Z,18.20
2023-05-20T11:37:59.256Z,17.90
2023-05-20T11:41:25.599Z,18.00
2023-05-20T11:44:50.649Z,18.20
2023-05-20T11:48:15.595Z,18.60
2023-05-20T11:51:39.738Z,18.80
2023-05-20T11:55:04.117Z,18.80
2023-05-20T11:58:28.462Z,18.90
2023-05-20T12:01:53.857Z,18.60
2023-05-20T12:05:20.154Z,18.80
2023-05-20T12:08:43.835Z,18.60
2023-05-20T12:12:08.285Z,18.80
2023-05-20T12:15:31.924Z,19.00
2023-05-20T12:18:56.971Z,18.70
2023-05-20T12:22:20.879Z,18.50
2023-05-20T12:25:45.679Z,18.40
2023-05-20T12:29:09.256Z,18.30
2023-05-20T12:32:32.891Z,18.50
2023-05-20T12:35:57.932Z,18.70
2023-05-20T12:39:21.668Z,18.60
2023-05-20T12:42:45.943Z,18.30
2023-05-20T12:46:09.868Z,18.20
2023-05-20T12:49:33.613Z,18.40
2023-05-20T12:52:58.770Z,18.50
2023-05-20T12:56:23.700Z,18.30
2023-05-20T12:59:47.470Z,18.40
2023-05-20T13:03:13.088Z,18.50
2023-05-20T13:06:36.932Z,18.50
2023-05-20T13:10:01.961Z,18.60
2023-05-20T13:13:25.824Z,18.60
2023-05-20T13:16:50.507Z,18.70
2023-05-20T13:20:14.839Z,18.80
2023-05-20T13:23:38.480Z,18.70
2023-05-20T13:27:03.482Z,18.50
2023-05-20T13:30:28.348Z,18.50
2023-05-20T13:33:53.062Z,18.40
2023-05-20T13:37:16.657Z,18.70
2023-05-20T13:40:40.319Z,18.90
2023-05-20T13:44:05.873Z,19.00
2023-05-20T13:47:29.546Z,18.80
2023-05-20T13:50:53.235Z,18.40
2023-05-20T13:54:17.012Z,18.30
2023-05-20T13:57:40.677Z,18.30
2023-05-20T14:01:06.324Z,18.30
2023-05-20T14:04:31.072Z,18.40
2023-05-20T14:07:54.834Z,18.50
2023-05-20T14:11:18.426Z,18.50
2023-05-20T14:14:42.024Z,18.50
2023-05-20T14:18:07.031Z,18.50
2023-05-20T14:21:31.359Z,18.00
2023-05-20T14:24:55.022Z,18.10
2023-05-20T14:28:18.788Z,18.30
2023-05-20T14:31:42.608Z,18.40
2023-05-20T14:35:08.992Z,18.30
2023-05-20T14:38:32.660Z,18.40
2023-05-20T14:41:56.312Z,18.40
2023-05-20T14:45:20.700Z,18.30
2023-05-20T14:48:44.376Z,18.70
2023-05-20T14:52:09.316Z,18.80
2023-05-20T14:55:32.986Z,18.70
2023-05-20T14:58:56.659Z,18.60
2023-05-20T15:02:20.726Z,18.50
2023-05-20T15:05:44.440Z,18.40
2023-05-20T15:09:10.084Z,18.30
2023-05-20T15:12:33.734Z,17.80
2023-05-20T15:15:57.571Z,17.90
2023-05-20T15:19:21.230Z,18.00
2023-05-20T15:22:46.072Z,17.80
2023-05-20T15:26:11.922Z,17.60
2023-05-20T15:29:35.712Z,17.70
2023-05-20T15:32:59.437Z,17.50
2023-05-20T15:36:23.104Z,17.40
2023-05-20T15:39:46.684Z,17.40
2023-05-20T15:43:11.727Z,17.30
2023-05-20T15:46:35.487Z,17.10
2023-05-20T15:49:59.963Z,17.40
2023-05-20T15:53:23.809Z,17.40
2023-05-20T15:56:47.716Z,17.40
2023-05-20T16:00:14.584Z,17.10
2023-05-20T16:03:38.383Z,17.20
2023-05-20T16:07:02.092Z,17.10
2023-05-20T16:10:27.482Z,17.20
2023-05-20T16:13:51.120Z,17.10
2023-05-20T16:17:16.801Z,17.20
2023-05-20T16:20:40.393Z,17.10
2023-05-20T16:24:04.180Z,17.10
2023-05-20T16:27:28.047Z,17.10
2023-05-20T16:30:51.740Z,17.00
2023-05-20T16:34:17.303Z,17.10
2023-05-20T16:37:40.942Z,16.80
2023-05-20T16:41:04.580Z,16.90
2023-05-20T16:44:28.175Z,16.90
2023-05-20T16:47:51.982Z,17.10
2023-05-20T16:51:17.037Z,17.10
2023-05-20T16:54:40.649Z,16.90
2023-05-20T16:58:04.273Z,17.00
2023-05-20T17:01:30.276Z,16.90
2023-05-20T17:04:53.897Z,17.00
2023-05-20T17:08:19.147Z,16.80
2023-05-20T17:11:42.781Z,16.90
2023-05-20T17:15:07.288Z,16.80
2023-05-20T17:18:31.361Z,16.70
2023-05-20T17:21:54.951Z,16.80
2023-05-20T17:25:20.070Z,16.90
2023-05-20T17:28:43.924Z,16.90
2023-05-20T17:32:08.334Z,16.90
2023-05-20T17:35:31.982Z,16.70
2023-05-20T17:38:55.615Z,16.70
2023-05-20T17:42:20.547Z,16.80
2023-05-20T17:45:44.363Z,16.80
2023-05-20T17:49:07.996Z,16.70
2023-05-20T17:52:31.601Z,16.90
2023-05-20T17:55:55.180Z,16.80
2023-05-20T17:59:20.145Z,16.80
2023-05-20T18:02:48.349Z,16.70
2023-05-20T18:06:12.215Z,16.70
2023-05-20T18:09:36.033Z,16.60
2023-05-20T18:12:59.651Z,16.70
2023-05-20T18:16:24.652Z,16.70
2023-05-20T18:19:49.135Z,16.70
2023-05-20T18:23:12.784Z,16.60
2023-05-20T18:26:36.438Z,16.60
2023-05-20T18:30:00.202Z,16.60
2023-05-20T18:33:25.183Z,16.60
2023-05-20T18:36:49.221Z,16.50
2023-05-20T18:40:13.758Z,16.50
2023-05-20T18:43:37.358Z,16.30
2023-05-20T18:47:01.045Z,16.40
2023-05-20T18:50:26.045Z,16.40
2023-05-20T18:53:49.626Z,16.40
2023-05-20T18:57:13.348Z,16.40
2023-05-20T19:00:37.110Z,16.40
2023-05-20T19:04:02.905Z,16.40
2023-05-20T19:07:27.925Z,16.40
2023-05-20T19:10:51.586Z,16.40
2023-05-20T19:14:15.487Z,16.40
2023-05-20T19:17:39.446Z,16.40
2023-05-20T19:21:03.194Z,16.50
2023-05-20T19:24:28.925Z,16.50
2023-05-20T19:27:52.629Z,16.50
2023-05-20T19:31:21.025Z,16.50
2023-05-20T19:34:44.969Z,16.40
2023-05-20T19:38:08.610Z,16.40
2023-05-20T19:41:33.675Z,16.30
2023-05-20T19:44:57.535Z,16.30
2023-05-20T19:48:22.330Z,16.20
2023-05-20T19:51:46.323Z,16.10
2023-05-20T19:55:10.416Z,16.10
2023-05-20T19:58:36.134Z,16.00
2023-05-20T20:02:04.515Z,16.00
2023-05-20T20:05:29.942Z,15.90
2023-05-20T20:08:53.859Z,15.80
2023-05-20T20:12:17.650Z,15.70
2023-05-20T20:15:42.667Z,15.70
2023-05-20T20:19:06.366Z,15.70
2023-05-20T20:22:30.068Z,15.60
2023-05-20T20:25:53.836Z,15.60
2023-05-20T20:29:17.584Z,15.60
2023-05-20T20:32:43.461Z,15.60
2023-05-20T20:36:08.877Z,15.60
2023-05-20T20:39:32.509Z,15.50
2023-05-20T20:42:58.283Z,15.50
2023-05-20T20:46:21.972Z,15.40
2023-05-20T20:49:47.169Z,15.40
2023-05-20T20:53:15.139Z,15.30
2023-05-20T20:56:43.040Z,15.30
2023-05-20T21:00:16.543Z,15.30
2023-05-20T21:03:48.582Z,15.30
2023-05-20T21:07:18.638Z,15.20
2023-05-20T21:10:44.526Z,15.10
2023-05-20T21:14:14.424Z,15.10
2023-05-20T21:17:49.910Z,15.10
2023-05-20T21:21:15.115Z,15.10
2023-05-20T21:24:52.444Z,15.00
2023-05-20T21:28:17.041Z,14.90
2023-05-20T21:31:43.051Z,14.90
2023-05-20T21:35:10.649Z,14.90
2023-05-20T21:38:34.633Z,14.90
2023-05-20T21:42:02.193Z,14.90
2023-05-20T21:45:29.507Z,14.90
2023-05-20T21:48:55.383Z,14.80
2023-05-20T21:52:19.464Z,14.80
2023-05-20T21:55:45.504Z,14.80
2023-05-20T21:59:15.330Z,14.90
2023-05-20T22:02:40.653Z,14.80
2023-05-20T22:06:07.278Z,14.80
2023-05-20T22:09:33.112Z,14.80
2023-05-20T22:12:58.182Z,14.70
2023-05-20T22:16:30.832Z,14.70
2023-05-20T22:20:00.702Z,14.70
2023-05-20T22:23:24.435Z,14.60
2023-05-20T22:26:48.213Z,14.50
2023-05-20T22:30:22.107Z,14.50
2023-05-20T22:33:47.107Z,14.40
2023-05-20T22:37:11.716Z,14.40
2023-05-20T22:40:35.348Z,14.30
2023-05-20T22:43:59.041Z,14.30
2023-05-20T22:47:22.712Z,14.20
2023-05-20T22:50:48.192Z,14.20
2023-05-20T22:54:11.808Z,14.20
2023-05-20T22:57:37.011Z,14.20
2023-05-20T23:01:02.729Z,14.10
2023-05-20T23:04:26.514Z,14.10
2023-05-20T23:07:53.024Z,14.00
2023-05-20T23:11:16.773Z,14.00
2023-05-20T23:14:40.473Z,14.00
2023-05-20T23:18:04.149Z,13.90
2023-05-20T23:21:27.950Z,13.90
2023-05-20T23:24:52.849Z,13.90
2023-05-20T23:28:16.497Z,13.90
2023-05-20T23:31:40.336Z,13.80
2023-05-20T23:35:04.820Z,13.80
2023-05-20T23:38:28.572Z,13.80
2023-05-20T23:41:53.572Z,13.70
2023-05-20T23:45:17.341Z,13.70
2023-05-20T23:48:40.913Z,13.70
2023-05-20T23:52:04.870Z,13.60
2023-05-20T23:55:29.219Z,13.60
2023-05-20T23:58:54.194Z,13.60
